Nearby METAR Reports

 

KFRG - , , USA
Distance from station: SSW 12mi, 20km
Updated: 02/17/2018 6:16pm
Overcast
Overcast
 Wind from ESE
Wind: ESE 6 mph , 9 km/h
Temperature: 37°F , 3°C
Wind Chill: 32°F , 0°C
Dew Point: 30°F , -1°C
Humidity: 75%
Barometer: 30.23 inHg , 1023.7 hPa
Clouds: Overcast
Visibility: 10 miles , 16 km
Cloud details: Mostly cloudy 2400 ft
Overcast 2900 ft
2018/02/17 23:16 KFRG 172316Z 11005KT 10SM BKN024 OVC029 03/M01 A3023 RMK AO2 T00281011
KISP - , , USA
Distance from station: ESE 14mi, 23km
Updated: 02/17/2018 5:56pm
Light snow, Overcast
Light snow, Overcast
 Wind from ESE
Wind: ESE 6 mph , 9 km/h
Temperature: 37°F , 3°C
Wind Chill: 32°F , 0°C
Dew Point: 28°F , -2°C
Humidity: 70%
Barometer: 30.24 inHg , 1024 hPa
Summary: Light Snow
Clouds: Overcast
Visibility: 9 miles , 14 km
Cloud details: Few Clouds 900 ft
Mostly cloudy 2700 ft
Overcast 3400 ft
2018/02/17 22:56 KISP 172256Z 11005KT 9SM -SN FEW009 BKN027 OVC034 03/M02 A3024 RMK AO2 SNB42 SLP242 P0000 T00281022
 
KBDR - , , USA
Distance from station: NNE 21mi, 34km
Updated: 02/17/2018 6:25pm
Light snow, Overcast
Light snow, Overcast
 Wind from SSE
Wind: SSE 8 mph , 13 km/h
Temperature: 34°F , 1°C
Wind Chill: 27°F , -3°C
Dew Point: 28°F , -2°C
Humidity: 81%
Barometer: 30.25 inHg , 1024.4 hPa
Summary: Light Snow
Clouds: Overcast
Visibility: 3/4 mile , 5 km
Cloud details: Overcast 1200 ft
2018/02/17 23:25 KBDR 172325Z 15007KT 3/4SM -SN VV012 01/M02 A3025 RMK AO2 SNB2256 P0001 T00061022 $
KHPN - , , USA
Distance from station: WNW 22mi, 35km
Updated: 02/17/2018 5:56pm
Light snow, Mist, Overcast
Light snow, Mist, Overcast
 Wind from SE
Wind: SE 8 mph , 13 km/h
Temperature: 30°F , -1°C
Wind Chill: 22°F , -6°C
Dew Point: 28°F , -2°C
Humidity: 93%
Barometer: 30.22 inHg , 1023.4 hPa
Summary: Light snow, Mist
Clouds: Overcast
Visibility: 3/4 mile , 5 km
Cloud details: Overcast 500 ft
2018/02/17 22:56 KHPN 172256Z 14007KT 3/4SM R16/5000V5500FT -SN BR VV005 M01/M02 A3022 RMK AO2 SNB28 SLP243 P0002 T10061022
 
KHWV - , , USA
Distance from station: ESE 26mi, 41km
Updated: 02/17/2018 6:24pm
Light rain, Overcast
Light rain, Overcast
 Wind from ESE
Wind: ESE 3 mph , 6 km/h
Temperature: 37°F , 3°C
Dew Point: 30°F , -1°C
Humidity: 75%
Barometer: 30.24 inHg , 1024 hPa
Summary: Light rain
Clouds: Overcast
Visibility: 9 miles , 14 km
Cloud details: Mostly cloudy 2200 ft
Overcast 3200 ft
2018/02/17 23:24 KHWV 172324Z AUTO 11003KT 9SM -RA BKN022 OVC032 03/M01 A3024 RMK AO2 RAB2257 P0000 T00331006
KJFK - , , USA
Distance from station: SW 29mi, 46km
Updated: 02/17/2018 6:24pm
Light snow, Overcast
Light snow, Overcast
 Wind from NNE
Wind: NNE 7 mph , 11 km/h
Temperature: 36°F , 2°C
Wind Chill: 30°F , -1°C
Dew Point: 30°F , -1°C
Humidity: 81%
Barometer: 30.26 inHg , 1024.7 hPa
Summary: Light Snow
Clouds: Overcast
Visibility: 7 miles , 11 km
Cloud details: Mostly cloudy 2300 ft
Overcast 3000 ft
2018/02/17 23:24 KJFK 172324Z 02006KT 7SM -SN BKN023 OVC030 02/M01 A3026 RMK AO2 SNB04 P0000 T00171006
 
KLGA - , , USA
Distance from station: WSW 29mi, 47km
Updated: 02/17/2018 6:24pm
Light snow, Mist, Overcast
Light snow, Mist, Overcast
 Wind from NE
Wind: NE 3 mph , 6 km/h
Temperature: 34°F , 1°C
Dew Point: 30°F , -1°C
Humidity: 87%
Barometer: 30.24 inHg , 1024 hPa
Summary: Light snow, Mist
Clouds: Overcast
Visibility: 1/2 mile , 2 km
Cloud details: Partly cloudy 600 ft
Overcast 2200 ft
2018/02/17 23:24 KLGA 172324Z 05003KT 1/2SM R04/4000V5000FT -SN BR SCT006 OVC022 01/M01 A3024 RMK AO2 SFC VIS 1 P0002 T00061011 $